Alexander Field South Wood County, WI

9:56 PM CST on November 23, 2014 (GMT -0600)
Marshfield Municipal | Change Station
CLOSE
Current Station
Airport
Location: Marshfield,
Elevation: 1276 ft
Nearby Weather Stations

Elev 1276 ft 44.64 °N, 90.19 °W | Updated 1 hour ago

Overcast
Overcast
44 °F
Feels Like 41 °F
N
6
Wind Variable Wind from East

Today
High -- | Low -- °F
--% Chance of Precip.
Yesterday
High -- | Low -- °F
Precip. -- in
7:05 AM 4:25 PM
Waxing Crescent, 3% visible
Pressure 29.26 in
Visibility 0.2 miles
Clouds
Windchill 41 °F
Dew Point 43 °F
Humidity 96%
Rainfall 0.00 in
Snow Depth Not available.
UV Not available.
Pollen .10 out of 12
Air Quality Not available.
Flu Activity Not available.
METAR KMFI 240254Z AUTO 08005KT 1/4SM FG VV002 07/06 A2924 RMK AO2 RAB00E51 SLP909 P0000 60000 T00670061 58035

More Conditions Fewer Conditions

Pressure 29.26 in
Visibility 0.2 miles
Clouds
Windchill 41 °F
Dew Point 43 °F
Humidity 96%
Rainfall 0.00 in
Snow Depth Not available.
UV Not available.
Pollen .10 out of 12
Air Quality Not available.
Flu Activity Not available.
METAR KMFI 240254Z AUTO 08005KT 1/4SM FG VV002 07/06 A2924 RMK AO2 RAB00E51 SLP909 P0000 60000 T00670061 58035

More Conditions Fewer Conditions

10-Day Weather Forecast

Almanac

Astronomy

Nov. 23, 2014 Rise Set
Actual Time
Civil Twilight
Nautical Twilight
Astronomical Twilight
Moon
Length of Visible Light
Length of Day
Tomorrow will be .
, % of the Moon is Illuminated

Today's Extremes

State Highs State Lows

Community

WunderPhotos

Upload Photos

1,773,262 photos uploaded!

WunderBlogs® & News

Nearby

Air Quality

  Air Quality AQ Index Pollutant
Not available.

Snow Depth

Station Depth Elevation

Earthquake Activity

City Distance Mag. Time & Date
Minimum magnitude displayed is 2.5.

Coastal Water Temperatures

Place Temperature

Nearby Weather Stations